Time;durP1;ratioP1;P1;durP2;ratioP2;P2;SDS_P1;SDS_P2;PMS_P1;PMS_P2;Temp;Humidity;BMP_temperature;BMP_pressure;BME280_temperature;BME280_humidity;BME280_pressure;Samples;Min_cycle;Max_cycle;Signal;HPM_P1;HPM_P2
2022/06/25 00:01:27;;;;;;;8.57;6.32;;;;;;;18.14;100.00;100263.94;5042752;28;20417;-93
2022/06/25 00:03:57;;;;;;;10.80;6.50;;;;;;;17.73;100.00;100188.56;5035098;28;20425;-91
2022/06/25 00:06:29;;;;;;;9.63;6.70;;;;;;;18.13;100.00;100248.53;5041645;28;20415;-92
2022/06/25 00:08:58;;;;;;;9.30;6.65;;;;;;;18.07;100.00;100239.69;5027271;28;20428;-92
2022/06/25 00:14:17;;;;;;;10.13;6.88;;;;;;;17.95;100.00;100226.72;5036550;28;20434;-92
2022/06/25 00:16:46;;;;;;;10.57;6.80;;;;;;;17.97;100.00;100234.66;5030026;28;20423;-93
2022/06/25 00:19:16;;;;;;;11.00;6.80;;;;;;;18.07;100.00;100244.41;5039284;28;20429;-90
2022/06/25 00:21:49;;;;;;;11.63;7.20;;;;;;;17.88;100.00;100218.19;5038783;28;20420;-93
2022/06/25 00:24:23;;;;;;;10.37;7.50;;;;;;;18.08;100.00;100249.59;5044347;28;20429;-92
2022/06/25 00:26:51;;;;;;;10.40;6.97;;;;;;;17.68;100.00;100189.59;5031877;28;20444;-93
2022/06/25 00:29:24;;;;;;;9.53;7.00;;;;;;;18.06;100.00;100249.09;5034280;28;20499;-92
2022/06/25 00:31:53;;;;;;;11.75;7.55;;;;;;;18.03;100.00;100247.03;5032766;28;20891;-92
2022/06/25 00:34:22;;;;;;;10.82;7.35;;;;;;;18.08;100.00;100252.34;5038743;28;20782;-93
2022/06/25 00:36:50;;;;;;;11.07;7.37;;;;;;;17.82;100.00;100194.78;5041250;28;20415;-92
2022/06/25 00:39:23;;;;;;;10.35;7.07;;;;;;;18.07;100.00;100245.22;5037927;28;20419;-92
2022/06/25 00:41:57;;;;;;;11.07;7.53;;;;;;;17.98;100.00;100237.06;5031459;28;20427;-92
2022/06/25 00:44:30;;;;;;;10.30;7.40;;;;;;;17.71;100.00;100212.88;5030522;28;20434;-91
2022/06/25 00:47:05;;;;;;;11.95;7.80;;;;;;;17.89;100.00;100232.75;5034401;28;20434;-92
2022/06/25 00:49:35;;;;;;;10.57;7.77;;;;;;;17.86;100.00;100228.75;5031506;28;20411;-91
2022/06/25 00:52:08;;;;;;;12.50;7.65;;;;;;;17.96;100.00;100249.56;5030515;28;20426;-92
2022/06/25 00:54:46;;;;;;;11.18;7.85;;;;;;;18.01;100.00;100257.59;5033140;28;20412;-93
2022/06/25 00:57:24;;;;;;;9.73;7.57;;;;;;;17.82;100.00;100230.56;5041809;28;20466;-92
2022/06/25 01:00:00;;;;;;;11.48;7.90;;;;;;;17.96;100.00;100252.31;5042823;28;20426;-92
2022/06/25 01:02:28;;;;;;;11.27;8.20;;;;;;;17.78;100.00;100233.19;5034291;28;20419;-92
2022/06/25 01:05:06;;;;;;;12.32;7.80;;;;;;;17.99;100.00;100277.22;5043169;28;20900;-92
2022/06/25 01:07:35;;;;;;;11.35;8.50;;;;;;;17.96;100.00;100277.09;5040944;28;20430;-91
2022/06/25 01:10:09;;;;;;;11.95;8.23;;;;;;;17.96;100.00;100279.84;5036203;28;20422;-92
2022/06/25 01:12:38;;;;;;;10.85;8.25;;;;;;;17.94;100.00;100287.63;5031677;28;21021;-91
2022/06/25 01:15:15;;;;;;;11.23;8.02;;;;;;;17.95;100.00;100284.53;5027804;28;20436;-92
2022/06/25 01:17:45;;;;;;;11.77;8.70;;;;;;;17.95;100.00;100297.50;5033448;28;20434;-90
2022/06/25 01:20:17;;;;;;;11.82;8.25;;;;;;;17.94;100.00;100295.88;5040911;28;20422;-92
2022/06/25 01:22:47;;;;;;;11.25;8.65;;;;;;;17.94;100.00;100299.44;5034347;28;20987;-93
2022/06/25 01:25:20;;;;;;;10.95;8.32;;;;;;;17.90;100.00;100292.97;5033754;28;20427;-89
2022/06/25 01:27:53;;;;;;;12.63;8.55;;;;;;;17.78;100.00;100279.97;5039707;28;20434;-90
2022/06/25 01:30:26;;;;;;;14.18;8.57;;;;;;;17.91;100.00;100294.63;5039946;28;20985;-93
2022/06/25 01:33:00;;;;;;;13.48;10.07;;;;;;;17.89;100.00;100307.88;5045119;28;20421;-90
2022/06/25 01:35:28;;;;;;;15.48;10.48;;;;;;;17.88;100.00;100309.00;5038272;28;20434;-91
2022/06/25 01:37:58;;;;;;;14.80;10.40;;;;;;;17.90;100.00;100316.94;5040125;28;20429;-92
2022/06/25 01:40:31;;;;;;;13.68;10.60;;;;;;;17.79;100.00;100303.59;5048462;28;20893;-91
2022/06/25 01:43:00;;;;;;;16.45;11.02;;;;;;;17.85;100.00;100317.97;5038073;28;20430;-91
2022/06/25 01:45:35;;;;;;;15.93;11.25;;;;;;;17.88;100.00;100314.53;5033460;28;20426;-92
2022/06/25 01:48:05;;;;;;;16.63;11.85;;;;;;;17.95;100.00;100328.59;5032916;28;20434;-91
2022/06/25 01:50:39;;;;;;;15.23;11.27;;;;;;;17.74;100.00;100289.25;5038042;28;20416;-90
2022/06/25 01:53:09;;;;;;;15.18;11.40;;;;;;;17.87;100.00;100309.34;5041383;28;20431;-92
2022/06/25 01:55:42;;;;;;;16.58;11.43;;;;;;;17.94;100.00;100329.72;5049667;28;20422;-91
2022/06/25 01:58:17;;;;;;;15.65;11.32;;;;;;;17.97;100.00;100331.81;5034537;28;20431;-91
2022/06/25 02:00:45;;;;;;;14.43;10.95;;;;;;;17.94;100.00;100335.25;5041787;28;20430;-90
2022/06/25 02:03:14;;;;;;;15.23;10.90;;;;;;;17.97;100.00;100334.56;5032699;28;20442;-87
2022/06/25 02:05:58;;;;;;;17.40;11.77;;;;;;;17.96;100.00;100340.41;5034532;28;20426;-89
2022/06/25 02:08:35;;;;;;;14.77;11.33;;;;;;;17.90;100.00;100338.97;5043625;28;20931;-90
2022/06/25 02:11:05;;;;;;;16.17;11.48;;;;;;;17.69;100.00;100339.81;5034430;28;20431;-91
2022/06/25 02:13:38;;;;;;;14.73;11.00;;;;;;;17.75;100.00;100338.44;5026392;28;20457;-90
2022/06/25 02:16:07;;;;;;;16.10;10.73;;;;;;;17.89;100.00;100360.19;5029075;28;20439;-89
2022/06/25 02:18:40;;;;;;;13.82;9.93;;;;;;;17.80;100.00;100338.25;5032443;28;20427;-90
2022/06/25 02:21:08;;;;;;;14.57;9.83;;;;;;;17.97;100.00;100353.03;5032519;28;20422;-90
2022/06/25 02:23:38;;;;;;;15.25;10.60;;;;;;;18.00;100.00;100352.34;5032865;28;20423;-91
2022/06/25 02:26:11;;;;;;;13.90;10.23;;;;;;;18.06;100.00;100348.22;5038599;28;20426;-91
2022/06/25 02:28:44;;;;;;;12.93;10.03;;;;;;;18.10;100.00;100343.66;5038156;28;20438;-91
2022/06/25 02:31:18;;;;;;;13.48;9.40;;;;;;;18.04;100.00;100338.72;5031939;28;20419;-92
2022/06/25 02:33:46;;;;;;;13.27;9.93;;;;;;;18.09;100.00;100336.56;5039212;28;20422;-91
2022/06/25 02:36:15;;;;;;;14.23;10.77;;;;;;;18.13;100.00;100344.94;5032727;28;20423;-90
2022/06/25 02:38:49;;;;;;;15.45;10.35;;;;;;;18.13;100.00;100340.25;5037864;28;20908;-91
2022/06/25 02:41:24;;;;;;;14.80;10.18;;;;;;;18.03;100.00;100337.91;5032010;28;20434;-92
2022/06/25 02:43:53;;;;;;;14.30;10.75;;;;;;;17.99;100.00;100339.72;5026186;28;20789;-90
2022/06/25 02:46:35;;;;;;;14.37;10.33;;;;;;;17.96;100.00;100341.19;5024557;28;20921;-90
2022/06/25 02:49:08;;;;;;;13.38;10.48;;;;;;;17.92;100.00;100331.22;5036517;28;20429;-90
2022/06/25 02:51:36;;;;;;;13.65;10.68;;;;;;;17.92;100.00;100332.00;5041913;28;20424;-89
2022/06/25 02:54:06;;;;;;;17.03;11.27;;;;;;;17.79;100.00;100313.81;5039574;28;20423;-91
2022/06/25 02:59:26;;;;;;;16.10;10.95;;;;;;;17.72;100.00;100321.78;5017364;28;20443;-90
2022/06/25 03:01:55;;;;;;;15.60;11.13;;;;;;;17.77;100.00;100332.59;5037255;28;20425;-89
2022/06/25 03:04:28;;;;;;;15.97;11.10;;;;;;;17.68;100.00;100325.22;5038947;28;20419;-91
2022/06/25 03:07:03;;;;;;;15.65;11.13;;;;;;;17.58;100.00;100316.56;5032502;28;20430;-91
2022/06/25 03:09:38;;;;;;;14.88;10.70;;;;;;;17.60;100.00;100331.59;5031879;28;20427;-88
2022/06/25 03:12:07;;;;;;;17.20;11.45;;;;;;;17.60;100.00;100334.34;5042521;28;20422;-91
2022/06/25 03:14:37;;;;;;;16.17;10.73;;;;;;;17.57;100.00;100334.25;5033078;28;20423;-89
2022/06/25 03:17:10;;;;;;;15.35;11.23;;;;;;;17.56;100.00;100329.88;5028669;28;20769;-90
2022/06/25 03:19:58;;;;;;;14.65;11.05;;;;;;;17.44;100.00;100319.59;5031950;28;20407;-89
2022/06/25 03:22:34;;;;;;;15.45;10.50;;;;;;;17.31;100.00;100299.47;5031463;28;20434;-90
2022/06/25 03:25:09;;;;;;;16.40;10.98;;;;;;;17.51;100.00;100339.09;5031276;28;20414;-89
2022/06/25 03:27:43;;;;;;;16.58;11.30;;;;;;;17.50;100.00;100343.81;5031129;28;20422;-90
2022/06/25 03:30:16;;;;;;;17.48;12.15;;;;;;;17.39;100.00;100339.06;5032555;28;20427;-91
2022/06/25 03:32:46;;;;;;;16.83;11.07;;;;;;;17.51;100.00;100345.44;5025435;28;20411;-90
2022/06/25 03:35:30;;;;;;;13.98;10.82;;;;;;;17.49;100.00;100352.41;5039242;28;20415;-91
2022/06/25 03:38:18;;;;;;;14.77;11.05;;;;;;;17.53;100.00;100350.59;5031722;28;20435;-90
2022/06/25 03:40:48;;;;;;;15.45;11.65;;;;;;;17.52;100.00;100362.75;5031156;28;21089;-90
2022/06/25 03:43:22;;;;;;;14.50;10.63;;;;;;;17.29;100.00;100331.97;5030444;28;20411;-91
2022/06/25 03:45:51;;;;;;;15.57;11.43;;;;;;;17.50;100.00;100367.78;5031375;28;20423;-89
2022/06/25 03:48:24;;;;;;;15.93;11.30;;;;;;;17.39;100.00;100333.56;5033839;28;20776;-90
2022/06/25 03:51:19;;;;;;;14.93;11.02;;;;;;;17.61;100.00;100363.50;5037258;28;20468;-91
2022/06/25 03:53:47;;;;;;;15.65;11.43;;;;;;;17.55;100.00;100353.81;5032696;28;20426;-90
2022/06/25 03:56:22;;;;;;;16.05;11.32;;;;;;;17.57;100.00;100362.53;5034828;28;20411;-90
2022/06/25 03:58:56;;;;;;;16.90;12.02;;;;;;;17.61;100.00;100362.69;5039140;28;20411;-89
2022/06/25 04:01:29;;;;;;;15.77;11.67;;;;;;;17.66;100.00;100374.31;5030679;28;21023;-89
2022/06/25 04:03:58;;;;;;;17.80;12.38;;;;;;;17.64;100.00;100376.56;5044477;28;20441;-90
2022/06/25 04:06:27;;;;;;;14.75;11.52;;;;;;;17.64;100.00;100370.28;5030425;28;20419;-90
2022/06/25 04:09:00;;;;;;;16.90;12.17;;;;;;;17.63;100.00;100358.44;5040271;28;20469;-90
2022/06/25 04:11:32;;;;;;;17.13;12.18;;;;;;;17.72;100.00;100379.59;5041324;28;20422;-91
2022/06/25 04:14:02;;;;;;;17.60;12.73;;;;;;;17.72;100.00;100376.84;5031312;28;20422;-89
2022/06/25 04:16:31;;;;;;;18.27;12.68;;;;;;;17.70;100.00;100379.13;5026147;28;20420;-90
2022/06/25 04:19:10;;;;;;;17.23;11.95;;;;;;;17.72;100.00;100379.59;5023014;28;20990;-92
2022/06/25 04:21:40;;;;;;;15.55;10.93;;;;;;;17.79;100.00;100371.63;5038240;28;20415;-91
2022/06/25 04:24:15;;;;;;;17.95;11.55;;;;;;;17.58;100.00;100344.91;5030673;28;20501;-92
2022/06/25 04:26:49;;;;;;;15.77;11.27;;;;;;;17.89;100.00;100390.47;5030224;28;20415;-90
2022/06/25 04:29:17;;;;;;;15.23;10.98;;;;;;;17.87;100.00;100389.19;5030692;28;20438;-90
2022/06/25 04:31:51;;;;;;;13.80;10.73;;;;;;;17.94;100.00;100389.47;5030642;28;20780;-90
2022/06/25 04:34:52;;;;;;;15.30;11.37;;;;;;;18.02;100.00;100400.44;5038780;28;20411;-90
2022/06/25 04:37:20;;;;;;;17.63;10.77;;;;;;;18.05;100.00;100411.91;5029500;28;20427;-90
2022/06/25 04:39:48;;;;;;;17.23;11.05;;;;;;;18.07;100.00;100415.94;5030169;28;20896;-91
2022/06/25 04:42:18;;;;;;;15.38;10.80;;;;;;;18.00;100.00;100399.94;5031328;28;20439;-90
2022/06/25 04:44:51;;;;;;;14.73;10.73;;;;;;;17.95;100.00;100394.66;5041470;28;20418;-91
2022/06/25 04:47:27;;;;;;;14.73;10.40;;;;;;;18.13;100.00;100427.53;5023534;28;20435;-90
2022/06/25 04:50:09;;;;;;;16.95;10.52;;;;;;;18.19;100.00;100428.97;5044570;28;20444;-90
2022/06/25 04:52:38;;;;;;;14.05;9.98;;;;;;;18.28;100.00;100443.44;5030711;28;20422;-91
2022/06/25 04:55:12;;;;;;;14.23;10.40;;;;;;;18.10;100.00;100442.78;5037925;28;20401;-91
2022/06/25 04:57:47;;;;;;;13.82;9.40;;;;;;;18.21;100.00;100436.88;5027485;28;20444;-90
2022/06/25 05:00:34;;;;;;;13.68;9.60;;;;;;;18.23;100.00;100434.59;5015573;28;20395;-90
2022/06/25 05:03:08;;;;;;;14.38;9.40;;;;;;;18.25;100.00;100452.38;5034901;28;21080;-91
2022/06/25 05:05:42;;;;;;;15.45;9.70;;;;;;;18.22;100.00;100444.00;5044526;28;20733;-90
2022/06/25 05:08:16;;;;;;;14.23;10.23;;;;;;;18.17;100.00;100410.03;5034783;28;20475;-91
2022/06/25 05:10:45;;;;;;;14.38;10.38;;;;;;;18.18;100.00;100395.09;5029976;28;20426;-91
2022/06/25 05:13:15;;;;;;;12.83;9.50;;;;;;;18.98;100.00;100428.16;5030828;28;20418;-92
2022/06/25 05:15:46;;;;;;;16.38;9.65;;;;;;;19.78;100.00;100457.09;5037965;28;20810;-91
2022/06/25 05:18:14;;;;;;;14.15;9.50;;;;;;;20.10;100.00;100454.53;5037625;28;20461;-90
2022/06/25 05:20:44;;;;;;;13.63;9.80;;;;;;;20.31;100.00;100448.00;5028006;28;20419;-90
2022/06/25 05:23:17;;;;;;;13.65;10.27;;;;;;;19.66;100.00;100443.31;5029803;28;20419;-90
2022/06/25 05:25:45;;;;;;;16.10;10.40;;;;;;;19.69;100.00;100445.38;5034855;28;20404;-90
2022/06/25 05:28:20;;;;;;;15.80;10.57;;;;;;;20.33;100.00;100452.03;5039736;28;20419;-92
2022/06/25 05:30:48;;;;;;;18.87;11.27;;;;;;;21.03;100.00;100447.97;5029534;28;20787;-92
2022/06/25 05:33:16;;;;;;;16.35;11.02;;;;;;;21.91;100.00;100446.06;5029896;28;20426;-91
2022/06/25 05:35:50;;;;;;;14.40;9.65;;;;;;;22.61;100.00;100429.63;5029718;28;20490;-92
2022/06/25 05:38:23;;;;;;;15.10;10.20;;;;;;;22.09;100.00;100469.41;5032012;28;20423;-91
2022/06/25 05:40:57;;;;;;;14.07;10.32;;;;;;;21.96;100.00;100472.69;5032448;28;20427;-92
2022/06/25 05:43:31;;;;;;;14.40;9.50;;;;;;;21.15;100.00;100441.53;5032993;28;20423;-91
2022/06/25 05:46:00;;;;;;;15.32;9.27;;;;;;;21.55;100.00;100431.44;5040461;28;20417;-92
2022/06/25 05:48:28;;;;;;;12.90;9.18;;;;;;;21.82;100.00;100468.44;5047589;28;20417;-92
2022/06/25 05:50:57;;;;;;;13.38;9.40;;;;;;;21.39;100.00;100465.47;5033877;28;20903;-91
2022/06/25 05:53:26;;;;;;;13.38;8.50;;;;;;;21.45;100.00;100481.78;5039201;28;20411;-92
2022/06/25 05:55:55;;;;;;;13.10;9.35;;;;;;;20.84;100.00;100476.34;5036268;28;20452;-91
2022/06/25 05:58:24;;;;;;;13.73;9.88;;;;;;;20.49;100.00;100474.16;5039536;28;20419;-92
2022/06/25 06:00:53;;;;;;;14.30;10.10;;;;;;;20.66;100.00;100492.44;5024972;28;20417;-90
2022/06/25 06:03:22;;;;;;;14.65;10.68;;;;;;;20.75;100.00;100502.56;5034981;28;20411;-91
2022/06/25 06:05:50;;;;;;;12.45;9.68;;;;;;;20.86;100.00;100467.69;5030964;28;20932;-89
2022/06/25 06:08:23;;;;;;;14.60;9.82;;;;;;;21.04;100.00;100506.88;5044923;28;20407;-90
2022/06/25 06:10:51;;;;;;;12.38;9.10;;;;;;;21.15;100.00;100505.19;5035413;28;20431;-92
2022/06/25 06:13:25;;;;;;;13.02;9.15;;;;;;;21.14;100.00;100500.78;5036275;28;20429;-91
2022/06/25 06:15:59;;;;;;;13.73;9.10;;;;;;;20.81;100.00;100463.22;5040772;28;20430;-90
2022/06/25 06:18:27;;;;;;;14.25;10.10;;;;;;;21.06;100.00;100513.66;5036307;28;20788;-91
2022/06/25 06:21:01;;;;;;;12.18;8.60;;;;;;;21.33;100.00;100510.38;5032129;28;20438;-90
2022/06/25 06:23:34;;;;;;;14.65;8.95;;;;;;;21.76;100.00;100516.16;5033968;28;20444;-88
2022/06/25 06:26:02;;;;;;;11.32;8.30;;;;;;;21.88;100.00;100514.06;5035781;28;20434;-88
2022/06/25 06:28:31;;;;;;;11.90;8.35;;;;;;;22.05;100.00;100509.28;5036700;28;20429;-86
2022/06/25 06:31:05;;;;;;;12.17;9.13;;;;;;;21.96;100.00;100509.50;5025873;28;20425;-91
2022/06/25 06:33:38;;;;;;;13.38;8.45;;;;;;;22.16;100.00;100512.31;5030475;28;20420;-91
2022/06/25 06:36:08;;;;;;;13.48;8.70;;;;;;;22.33;100.00;100524.94;5034580;28;20538;-91
2022/06/25 06:38:36;;;;;;;11.63;8.38;;;;;;;22.03;100.00;100517.97;5023899;28;20458;-91
2022/06/25 06:41:09;;;;;;;12.15;8.20;;;;;;;22.12;100.00;100523.31;5031075;28;20423;-91
2022/06/25 06:43:42;;;;;;;12.48;8.55;;;;;;;22.03;100.00;100548.44;5037521;28;20886;-92
2022/06/25 06:46:17;;;;;;;12.80;8.77;;;;;;;22.05;100.00;100543.38;5029468;28;20446;-90
2022/06/25 06:48:50;;;;;;;11.63;8.93;;;;;;;21.82;100.00;100550.72;5027599;28;20414;-93
2022/06/25 06:51:24;;;;;;;13.07;9.38;;;;;;;21.89;100.00;100548.16;5033607;28;20780;-91
2022/06/25 06:53:52;;;;;;;13.05;10.38;;;;;;;21.88;100.00;100550.09;5032254;28;20900;-93
2022/06/25 06:56:25;;;;;;;15.88;9.95;;;;;;;22.06;100.00;100550.50;5036733;28;20450;-92
2022/06/25 06:58:59;;;;;;;12.77;9.15;;;;;;;21.99;100.00;100546.78;5027066;28;20444;-92
2022/06/25 07:01:29;;;;;;;13.52;9.48;;;;;;;21.99;100.00;100546.78;5034428;28;20419;-92
2022/06/25 07:03:57;;;;;;;15.07;10.95;;;;;;;21.85;100.00;100539.75;5034016;28;20424;-90
2022/06/25 07:06:25;;;;;;;14.63;10.37;;;;;;;21.81;100.00;100516.69;5034625;28;20426;-91
2022/06/25 07:08:58;;;;;;;15.38;10.95;;;;;;;22.13;100.00;100552.63;5029935;28;20419;-91
2022/06/25 07:11:30;;;;;;;14.82;10.10;;;;;;;22.27;100.00;100551.34;5023635;28;20419;-89
2022/06/25 07:14:00;;;;;;;15.63;11.00;;;;;;;22.18;100.00;100557.91;5024789;28;20424;-86
2022/06/25 07:16:35;;;;;;;14.98;11.07;;;;;;;22.28;100.00;100556.53;5026893;28;20438;-89
2022/06/25 07:19:04;;;;;;;15.23;10.57;;;;;;;22.32;100.00;100551.84;5044660;28;20427;-90
2022/06/25 07:21:33;;;;;;;13.55;10.40;;;;;;;22.30;100.00;100556.94;5032139;28;20416;-92
2022/06/25 07:24:01;;;;;;;14.18;10.90;;;;;;;22.19;100.00;100567.81;5029701;28;20762;-92
2022/06/25 07:26:35;;;;;;;14.53;10.37;;;;;;;22.49;100.00;100556.19;5029455;28;20423;-91
2022/06/25 07:29:03;;;;;;;13.15;10.48;;;;;;;22.50;100.00;100560.59;5031209;28;20417;-91
2022/06/25 07:31:38;;;;;;;13.60;10.25;;;;;;;22.69;100.00;100551.47;5027881;28;20427;-89
2022/06/25 07:34:06;;;;;;;14.60;11.27;;;;;;;22.18;100.00;100557.06;5030351;28;20427;-91
2022/06/25 07:36:34;;;;;;;15.03;10.83;;;;;;;22.49;100.00;100563.72;5026305;28;20430;-90
2022/06/25 07:39:08;;;;;;;16.75;10.25;;;;;;;22.36;100.00;100555.53;5024781;28;20454;-91
2022/06/25 07:41:41;;;;;;;14.55;10.65;;;;;;;22.27;100.00;100567.97;5035395;28;20430;-90
2022/06/25 07:44:14;;;;;;;12.60;9.48;;;;;;;22.53;100.00;100568.16;5028289;28;20438;-90
2022/06/25 07:46:49;;;;;;;11.35;7.10;;;;;;;22.75;100.00;100563.06;5034714;28;20439;-90
2022/06/25 07:49:17;;;;;;;11.23;8.25;;;;;;;22.85;100.00;100559.69;5026571;28;20425;-90
2022/06/25 07:51:56;;;;;;;12.88;9.38;;;;;;;22.53;100.00;100570.16;5026866;28;20489;-88
2022/06/25 07:54:26;;;;;;;11.67;8.07;;;;;;;22.55;100.00;100565.84;5035860;28;20435;-89
2022/06/25 07:56:59;;;;;;;11.23;7.25;;;;;;;22.91;100.00;100563.78;5027283;28;20443;-92
2022/06/25 07:59:32;;;;;;;11.35;7.70;;;;;;;23.09;100.00;100561.34;5028937;28;20432;-89
2022/06/25 08:02:02;;;;;;;11.73;6.25;;;;;;;23.16;100.00;100563.47;5031723;28;20426;-92
2022/06/25 08:04:30;;;;;;;10.32;7.30;;;;;;;23.30;100.00;100570.44;5032984;28;20404;-90
2022/06/25 08:07:04;;;;;;;9.55;6.35;;;;;;;23.41;100.00;100575.03;5027144;28;20460;-89
2022/06/25 08:09:37;;;;;;;10.57;6.38;;;;;;;23.15;100.00;100577.72;5029998;28;20427;-89
2022/06/25 08:12:12;;;;;;;9.23;5.95;;;;;;;23.16;100.00;100568.22;5028548;28;21020;-90
2022/06/25 08:14:41;;;;;;;7.43;4.90;;;;;;;23.26;100.00;100570.38;5027735;28;20430;-84
2022/06/25 08:17:20;;;;;;;8.82;5.90;;;;;;;23.21;100.00;100571.47;5026033;28;20439;-88
2022/06/25 08:19:53;;;;;;;8.70;5.50;;;;;;;23.27;100.00;100567.25;5025716;28;20431;-91
2022/06/25 08:22:26;;;;;;;9.65;5.60;;;;;;;23.37;100.00;100574.16;5022567;28;20798;-90
2022/06/25 08:24:56;;;;;;;7.70;4.90;;;;;;;23.04;100.00;100544.19;5040405;28;21487;-91
2022/06/25 08:27:29;;;;;;;8.40;5.32;;;;;;;23.28;100.00;100579.13;5024239;28;20795;-89
2022/06/25 08:30:02;;;;;;;7.38;4.65;;;;;;;23.64;100.00;100573.41;5024171;28;20436;-91
2022/06/25 08:32:32;;;;;;;7.82;4.60;;;;;;;23.71;100.00;100566.00;5017726;28;20434;-89
2022/06/25 08:35:06;;;;;;;7.70;4.75;;;;;;;24.03;100.00;100579.59;5015061;28;20435;-91
2022/06/25 08:37:37;;;;;;;7.47;4.78;;;;;;;23.86;100.00;100575.34;5023183;28;20442;-91
2022/06/25 08:40:11;;;;;;;8.07;4.85;;;;;;;23.93;100.00;100567.16;5013943;28;20419;-92
2022/06/25 08:42:40;;;;;;;8.90;5.70;;;;;;;24.08;100.00;100567.34;5012732;28;20438;-90
2022/06/25 08:45:15;;;;;;;7.28;5.03;;;;;;;24.22;100.00;100563.97;5011264;28;20434;-90
2022/06/25 08:47:51;;;;;;;7.60;5.15;;;;;;;23.98;100.00;100568.00;5011669;28;21255;-90
2022/06/25 08:50:24;;;;;;;8.00;5.53;;;;;;;23.69;100.00;100548.88;5008222;28;20440;-89
2022/06/25 08:52:58;;;;;;;7.18;4.70;;;;;;;23.85;100.00;100567.38;5030556;28;20508;-91
2022/06/25 08:55:32;;;;;;;7.68;4.30;;;;;;;23.60;100.00;100540.81;5028912;28;20429;-91
2022/06/25 08:58:02;;;;;;;6.43;4.15;;;;;;;23.86;100.00;100566.22;5031862;28;20434;-92
2022/06/25 09:00:32;;;;;;;7.35;4.40;;;;;;;23.80;100.00;100562.94;5032156;28;20414;-90
2022/06/25 09:03:08;;;;;;;5.80;3.80;;;;;;;23.73;100.00;100558.06;5029970;28;20418;-93
2022/06/25 09:05:40;;;;;;;6.88;3.85;;;;;;;23.97;100.00;100564.41;5032332;28;20403;-90
2022/06/25 09:08:14;;;;;;;5.78;3.72;;;;;;;24.01;100.00;100565.25;5036823;28;21388;-92
2022/06/25 09:10:48;;;;;;;9.02;4.97;;;;;;;23.75;100.00;100563.25;5037901;28;20935;-92
2022/06/25 09:13:29;;;;;;;8.23;4.68;;;;;;;23.42;100.00;100559.97;5054152;28;20436;-90
2022/06/25 09:16:01;;;;;;;7.50;4.13;;;;;;;23.25;100.00;100530.69;5042927;28;20449;-90
2022/06/25 09:18:35;;;;;;;6.80;3.72;;;;;;;23.81;100.00;100558.19;5045992;28;20423;-92
2022/06/25 09:21:07;;;;;;;6.95;4.43;;;;;;;24.07;100.00;100565.75;5036360;28;20423;-92
2022/06/25 09:23:57;;;;;;;6.20;4.03;;;;;;;24.18;100.00;100560.34;5040487;28;20432;-90
2022/06/25 09:26:25;;;;;;;6.03;3.70;;;;;;;24.32;100.00;100543.03;5045435;28;20433;-91
2022/06/25 09:28:54;;;;;;;6.35;3.92;;;;;;;24.51;100.00;100569.91;5042327;28;20439;-91
2022/06/25 09:31:35;;;;;;;5.10;3.50;;;;;;;24.73;100.00;100551.53;5027709;28;21088;-93
2022/06/25 09:34:07;;;;;;;5.80;3.95;;;;;;;25.20;100.00;100563.16;5031918;28;20903;-91
2022/06/25 09:36:41;;;;;;;6.07;3.80;;;;;;;25.07;100.00;100557.84;5018905;28;20782;-91
2022/06/25 09:39:10;;;;;;;6.32;3.58;;;;;;;25.02;100.00;100544.28;5034544;28;20426;-89
2022/06/25 09:41:50;;;;;;;6.50;3.47;;;;;;;25.15;100.00;100569.88;5033307;28;20433;-92
2022/06/25 09:44:23;;;;;;;4.97;3.35;;;;;;;24.78;100.00;100563.13;5029805;28;20419;-90
2022/06/25 09:46:56;;;;;;;5.03;3.20;;;;;;;24.52;100.00;100563.19;5023694;28;20435;-91
2022/06/25 09:49:31;;;;;;;5.07;3.23;;;;;;;24.34;100.00;100562.94;5042755;28;20430;-93
2022/06/25 09:52:05;;;;;;;6.28;3.28;;;;;;;24.49;100.00;100561.16;5033814;28;20504;-92
2022/06/25 09:54:33;;;;;;;5.38;3.30;;;;;;;24.21;100.00;100554.84;5039503;28;20457;-89
2022/06/25 09:57:02;;;;;;;6.18;3.40;;;;;;;24.52;100.00;100563.97;5031876;28;20420;-91
2022/06/25 09:59:41;;;;;;;4.97;3.23;;;;;;;24.17;100.00;100545.66;5033270;28;20440;-93
2022/06/25 10:02:15;;;;;;;5.55;3.42;;;;;;;23.96;100.00;100550.91;5031523;28;20428;-92
2022/06/25 10:04:46;;;;;;;5.65;3.50;;;;;;;24.17;100.00;100565.09;5032958;28;20434;-92
2022/06/25 10:07:59;;;;;;;4.63;2.95;;;;;;;24.50;100.00;100548.81;5040102;28;20415;-92
2022/06/25 10:10:19;;;;;;;5.50;3.20;;;;;;;24.66;100.00;100518.84;5030357;28;21311;-92
2022/06/25 10:12:51;;;;;;;4.57;2.60;;;;;;;25.18;100.00;100557.97;5028234;28;20430;-91
2022/06/25 10:15:25;;;;;;;3.70;2.60;;;;;;;25.12;97.66;100510.19;5031113;28;20435;-90
2022/06/25 10:17:54;;;;;;;4.57;2.70;;;;;;;25.36;93.15;100549.00;5032614;28;20423;-93
2022/06/25 10:20:24;;;;;;;4.18;2.50;;;;;;;25.42;96.18;100531.53;5037954;28;20410;-91
2022/06/25 10:22:54;;;;;;;5.85;2.83;;;;;;;25.57;94.38;100556.75;5016747;28;20450;-89
2022/06/25 10:25:29;;;;;;;4.63;3.00;;;;;;;25.59;100.00;100546.00;5012156;28;20438;-89
2022/06/25 10:28:07;;;;;;;4.30;2.70;;;;;;;25.64;93.08;100542.84;5032374;28;20452;-94
2022/06/25 10:30:48;;;;;;;4.85;2.70;;;;;;;25.65;100.00;100543.69;5046897;28;20409;-91
2022/06/25 10:33:25;;;;;;;4.95;2.70;;;;;;;25.82;95.03;100539.41;5035920;28;20434;-93
2022/06/25 10:35:57;;;;;;;4.57;2.97;;;;;;;25.50;94.69;100514.91;5035415;28;20423;-89
2022/06/25 10:38:27;;;;;;;3.78;2.55;;;;;;;25.79;89.52;100533.41;5028099;28;20915;-90
2022/06/25 10:42:58;;;;;;;4.18;2.40;;;;;;;26.18;100.00;100517.34;5030252;28;20427;-92
2022/06/25 10:43:56;;;;;;;3.22;2.42;;;;;;;26.41;91.60;100511.47;5032458;28;20422;-91
2022/06/25 10:46:30;;;;;;;3.40;2.33;;;;;;;26.88;100.00;100522.78;5022077;28;20907;-93
2022/06/25 10:49:22;;;;;;;5.25;2.75;;;;;;;27.09;92.48;100530.41;5034040;28;20423;-84
2022/06/25 10:51:52;;;;;;;3.13;2.35;;;;;;;27.09;83.66;100520.00;5034058;28;20786;-91
2022/06/25 10:54:46;;;;;;;4.13;2.63;;;;;;;26.27;85.29;100526.94;5027820;28;20435;-91
2022/06/25 10:57:39;;;;;;;3.60;2.50;;;;;;;26.43;92.99;100532.19;5027356;28;20438;-90
2022/06/25 11:00:13;;;;;;;4.13;2.77;;;;;;;26.20;87.94;100529.69;5023996;28;20414;-90
2022/06/25 11:02:42;;;;;;;5.13;2.70;;;;;;;26.16;86.67;100517.72;5031510;28;20433;-91
2022/06/25 11:05:18;;;;;;;4.17;2.67;;;;;;;26.18;90.92;100506.97;5020534;28;20423;-92
2022/06/25 11:07:48;;;;;;;4.30;2.50;;;;;;;26.51;89.40;100523.84;5038350;28;20431;-91
2022/06/25 11:10:17;;;;;;;5.35;2.50;;;;;;;26.19;90.05;100516.94;5025094;28;20419;-91
2022/06/25 11:12:49;;;;;;;5.05;3.00;;;;;;;25.72;92.90;100519.44;5018184;28;20448;-92
2022/06/25 11:15:18;;;;;;;5.50;2.90;;;;;;;25.39;99.09;100493.31;5041117;28;20435;-90
2022/06/25 11:17:51;;;;;;;3.75;2.83;;;;;;;25.75;97.08;100537.38;5022304;28;20431;-88
2022/06/25 11:20:24;;;;;;;4.28;2.65;;;;;;;26.18;90.50;100532.06;5027983;28;20423;-92
2022/06/25 11:23:04;;;;;;;3.90;2.70;;;;;;;25.93;89.18;100504.81;5032805;28;20419;-90
2022/06/25 11:28:52;;;;;;;4.70;2.80;;;;;;;26.25;90.52;100539.69;5035470;28;20446;-92
2022/06/25 11:31:26;;;;;;;3.92;2.63;;;;;;;26.18;95.67;100545.22;5031857;28;20422;-89
2022/06/25 11:33:55;;;;;;;5.22;2.70;;;;;;;25.83;95.02;100505.56;5026061;28;20423;-93
2022/06/25 11:36:32;;;;;;;4.73;2.80;;;;;;;26.57;93.90;100539.00;5028399;28;20812;-95
2022/06/25 11:39:02;;;;;;;4.65;2.80;;;;;;;26.52;87.56;100536.63;5026931;28;20445;-93
2022/06/25 11:41:36;;;;;;;5.55;2.67;;;;;;;26.54;88.88;100495.94;5025979;28;20920;-91
2022/06/25 11:44:08;;;;;;;5.38;2.80;;;;;;;26.69;83.36;100521.13;5022953;28;20907;-91